sensor_id;sensor_type;location;lat;lon;timestamp;temperature;humidity
61151;DHT22;47029;50.994;2.876;2022-10-16T00:00:18;14.00;99.90
61151;DHT22;47029;50.994;2.876;2022-10-16T00:02:44;14.10;99.90
61151;DHT22;47029;50.994;2.876;2022-10-16T00:05:10;13.90;99.90
61151;DHT22;47029;50.994;2.876;2022-10-16T00:07:35;13.80;99.90
61151;DHT22;47029;50.994;2.876;2022-10-16T00:10:01;13.60;99.90
61151;DHT22;47029;50.994;2.876;2022-10-16T00:12:27;13.90;99.90
61151;DHT22;47029;50.994;2.876;2022-10-16T00:14:53;13.90;99.90
61151;DHT22;47029;50.994;2.876;2022-10-16T00:17:18;14.00;99.90
61151;DHT22;47029;50.994;2.876;2022-10-16T00:19:44;13.90;99.90
61151;DHT22;47029;50.994;2.876;2022-10-16T00:22:10;13.90;99.90
61151;DHT22;47029;50.994;2.876;2022-10-16T00:24:36;13.90;99.90
61151;DHT22;47029;50.994;2.876;2022-10-16T00:27:02;13.80;99.90
61151;DHT22;47029;50.994;2.876;2022-10-16T00:29:28;13.90;99.90
61151;DHT22;47029;50.994;2.876;2022-10-16T00:31:54;14.00;99.90
61151;DHT22;47029;50.994;2.876;2022-10-16T00:34:20;13.90;99.90
61151;DHT22;47029;50.994;2.876;2022-10-16T00:36:46;14.00;99.90
61151;DHT22;47029;50.994;2.876;2022-10-16T00:39:12;13.80;99.90
61151;DHT22;47029;50.994;2.876;2022-10-16T00:41:38;13.80;99.90
61151;DHT22;47029;50.994;2.876;2022-10-16T00:47:13;13.80;99.90
61151;DHT22;47029;50.994;2.876;2022-10-16T00:49:41;13.70;99.90
61151;DHT22;47029;50.994;2.876;2022-10-16T00:52:07;13.70;99.90
61151;DHT22;47029;50.994;2.876;2022-10-16T00:54:34;13.80;99.90
61151;DHT22;47029;50.994;2.876;2022-10-16T00:57:03;13.80;99.90
61151;DHT22;47029;50.994;2.876;2022-10-16T00:59:34;13.80;99.90
61151;DHT22;47029;50.994;2.876;2022-10-16T01:02:03;13.70;99.90
61151;DHT22;47029;50.994;2.876;2022-10-16T01:04:37;13.60;99.90
61151;DHT22;47029;50.994;2.876;2022-10-16T01:11:27;14.00;99.90
61151;DHT22;47029;50.994;2.876;2022-10-16T01:13:29;13.90;99.90
61151;DHT22;47029;50.994;2.876;2022-10-16T01:16:07;13.80;99.90
61151;DHT22;47029;50.994;2.876;2022-10-16T01:18:47;13.80;99.90
61151;DHT22;47029;50.994;2.876;2022-10-16T01:21:24;13.70;99.90
61151;DHT22;47029;50.994;2.876;2022-10-16T01:29:34;13.80;99.90
61151;DHT22;47029;50.994;2.876;2022-10-16T01:32:27;13.90;99.90
61151;DHT22;47029;50.994;2.876;2022-10-16T01:35:02;13.70;99.90
61151;DHT22;47029;50.994;2.876;2022-10-16T01:37:49;13.90;99.90
61151;DHT22;47029;50.994;2.876;2022-10-16T01:40:19;13.90;99.90
61151;DHT22;47029;50.994;2.876;2022-10-16T01:42:51;13.80;99.90
61151;DHT22;47029;50.994;2.876;2022-10-16T01:45:19;13.70;99.90
61151;DHT22;47029;50.994;2.876;2022-10-16T01:47:46;13.80;99.90
61151;DHT22;47029;50.994;2.876;2022-10-16T01:50:15;13.90;99.90
61151;DHT22;47029;50.994;2.876;2022-10-16T01:52:45;13.80;99.90
61151;DHT22;47029;50.994;2.876;2022-10-16T01:55:16;13.80;99.90
61151;DHT22;47029;50.994;2.876;2022-10-16T01:57:48;13.90;99.90
61151;DHT22;47029;50.994;2.876;2022-10-16T02:00:19;13.90;99.90
61151;DHT22;47029;50.994;2.876;2022-10-16T02:02:49;13.90;99.90
61151;DHT22;47029;50.994;2.876;2022-10-16T02:05:50;13.90;99.90
61151;DHT22;47029;50.994;2.876;2022-10-16T02:08:17;14.00;99.90
61151;DHT22;47029;50.994;2.876;2022-10-16T02:10:44;13.90;99.90
61151;DHT22;47029;50.994;2.876;2022-10-16T02:13:14;13.10;99.90
61151;DHT22;47029;50.994;2.876;2022-10-16T02:15:42;13.90;99.90
61151;DHT22;47029;50.994;2.876;2022-10-16T02:18:09;13.80;99.90
61151;DHT22;47029;50.994;2.876;2022-10-16T02:21:49;13.80;99.90
61151;DHT22;47029;50.994;2.876;2022-10-16T02:23:50;13.90;99.90
61151;DHT22;47029;50.994;2.876;2022-10-16T02:26:28;13.80;99.90
61151;DHT22;47029;50.994;2.876;2022-10-16T02:29:00;13.80;99.90
61151;DHT22;47029;50.994;2.876;2022-10-16T02:31:32;13.80;99.90
61151;DHT22;47029;50.994;2.876;2022-10-16T02:34:02;13.60;99.90
61151;DHT22;47029;50.994;2.876;2022-10-16T02:36:31;13.40;99.90
61151;DHT22;47029;50.994;2.876;2022-10-16T02:38:58;13.50;99.90
61151;DHT22;47029;50.994;2.876;2022-10-16T02:41:26;13.40;99.90
61151;DHT22;47029;50.994;2.876;2022-10-16T02:43:53;13.40;99.90
61151;DHT22;47029;50.994;2.876;2022-10-16T02:46:21;13.30;99.90
61151;DHT22;47029;50.994;2.876;2022-10-16T02:48:47;13.40;99.90
61151;DHT22;47029;50.994;2.876;2022-10-16T02:51:13;14.30;99.90
61151;DHT22;47029;50.994;2.876;2022-10-16T02:53:39;13.40;99.90
61151;DHT22;47029;50.994;2.876;2022-10-16T02:56:05;13.40;99.90
61151;DHT22;47029;50.994;2.876;2022-10-16T02:58:31;13.40;99.90
61151;DHT22;47029;50.994;2.876;2022-10-16T03:00:58;13.30;99.90
61151;DHT22;47029;50.994;2.876;2022-10-16T03:03:24;13.20;99.90
61151;DHT22;47029;50.994;2.876;2022-10-16T03:05:50;13.10;99.90
61151;DHT22;47029;50.994;2.876;2022-10-16T03:08:16;13.20;99.90
61151;DHT22;47029;50.994;2.876;2022-10-16T03:10:42;13.20;99.90
61151;DHT22;47029;50.994;2.876;2022-10-16T03:13:08;14.10;99.90
61151;DHT22;47029;50.994;2.876;2022-10-16T03:15:35;13.10;99.90
61151;DHT22;47029;50.994;2.876;2022-10-16T03:18:01;11.90;99.90
61151;DHT22;47029;50.994;2.876;2022-10-16T03:20:27;13.00;99.90
61151;DHT22;47029;50.994;2.876;2022-10-16T03:22:53;13.00;99.90
61151;DHT22;47029;50.994;2.876;2022-10-16T03:25:19;12.90;99.90
61151;DHT22;47029;50.994;2.876;2022-10-16T03:27:45;12.90;99.90
61151;DHT22;47029;50.994;2.876;2022-10-16T03:30:12;12.90;99.90
61151;DHT22;47029;50.994;2.876;2022-10-16T03:32:37;12.90;99.90
61151;DHT22;47029;50.994;2.876;2022-10-16T03:35:05;12.90;99.90
61151;DHT22;47029;50.994;2.876;2022-10-16T03:37:31;13.00;99.90
61151;DHT22;47029;50.994;2.876;2022-10-16T03:39:57;13.00;99.90
61151;DHT22;47029;50.994;2.876;2022-10-16T03:42:23;13.10;99.90
61151;DHT22;47029;50.994;2.876;2022-10-16T03:44:49;13.00;99.90
61151;DHT22;47029;50.994;2.876;2022-10-16T03:47:15;13.00;99.90
61151;DHT22;47029;50.994;2.876;2022-10-16T03:49:45;13.00;99.90
61151;DHT22;47029;50.994;2.876;2022-10-16T03:52:12;13.10;99.90
61151;DHT22;47029;50.994;2.876;2022-10-16T03:54:37;13.10;99.90
61151;DHT22;47029;50.994;2.876;2022-10-16T03:57:03;12.90;99.90
61151;DHT22;47029;50.994;2.876;2022-10-16T03:59:30;12.90;99.90
61151;DHT22;47029;50.994;2.876;2022-10-16T04:01:55;13.00;99.90
61151;DHT22;47029;50.994;2.876;2022-10-16T04:04:21;13.00;99.90
61151;DHT22;47029;50.994;2.876;2022-10-16T04:06:47;13.00;99.90
61151;DHT22;47029;50.994;2.876;2022-10-16T04:09:13;13.10;99.90
61151;DHT22;47029;50.994;2.876;2022-10-16T04:11:39;13.20;99.90
61151;DHT22;47029;50.994;2.876;2022-10-16T04:14:05;13.30;99.90
61151;DHT22;47029;50.994;2.876;2022-10-16T04:16:31;13.20;99.90
61151;DHT22;47029;50.994;2.876;2022-10-16T04:18:57;13.20;99.90
61151;DHT22;47029;50.994;2.876;2022-10-16T04:21:23;13.30;99.90
61151;DHT22;47029;50.994;2.876;2022-10-16T04:23:49;13.30;99.90
61151;DHT22;47029;50.994;2.876;2022-10-16T04:26:15;13.10;99.90
61151;DHT22;47029;50.994;2.876;2022-10-16T04:28:42;13.00;99.90
61151;DHT22;47029;50.994;2.876;2022-10-16T04:31:11;12.90;99.90
61151;DHT22;47029;50.994;2.876;2022-10-16T04:33:36;12.80;99.90
61151;DHT22;47029;50.994;2.876;2022-10-16T04:36:03;11.70;99.90
61151;DHT22;47029;50.994;2.876;2022-10-16T04:38:29;13.10;99.90
61151;DHT22;47029;50.994;2.876;2022-10-16T04:40:55;12.90;99.90
61151;DHT22;47029;50.994;2.876;2022-10-16T04:43:21;12.80;99.90
61151;DHT22;47029;50.994;2.876;2022-10-16T04:45:47;12.90;99.90
61151;DHT22;47029;50.994;2.876;2022-10-16T04:48:13;12.90;99.90
61151;DHT22;47029;50.994;2.876;2022-10-16T04:50:41;13.00;99.90
61151;DHT22;47029;50.994;2.876;2022-10-16T04:53:06;13.10;99.90
61151;DHT22;47029;50.994;2.876;2022-10-16T04:55:32;13.00;99.90
61151;DHT22;47029;50.994;2.876;2022-10-16T04:57:59;13.00;99.90
61151;DHT22;47029;50.994;2.876;2022-10-16T05:00:25;13.10;99.90
61151;DHT22;47029;50.994;2.876;2022-10-16T05:02:51;13.20;99.90
61151;DHT22;47029;50.994;2.876;2022-10-16T05:05:17;13.30;99.90
61151;DHT22;47029;50.994;2.876;2022-10-16T05:07:45;13.30;99.90
61151;DHT22;47029;50.994;2.876;2022-10-16T05:10:11;13.40;99.90
61151;DHT22;47029;50.994;2.876;2022-10-16T05:12:37;13.50;99.90
61151;DHT22;47029;50.994;2.876;2022-10-16T05:15:04;13.40;99.90
61151;DHT22;47029;50.994;2.876;2022-10-16T05:17:30;13.50;99.90
61151;DHT22;47029;50.994;2.876;2022-10-16T05:19:56;13.50;99.90
61151;DHT22;47029;50.994;2.876;2022-10-16T05:22:22;13.60;99.90
61151;DHT22;47029;50.994;2.876;2022-10-16T05:24:55;13.50;99.90
61151;DHT22;47029;50.994;2.876;2022-10-16T05:27:21;13.60;99.90
61151;DHT22;47029;50.994;2.876;2022-10-16T05:29:49;13.60;99.90
61151;DHT22;47029;50.994;2.876;2022-10-16T05:32:17;13.80;99.90
61151;DHT22;47029;50.994;2.876;2022-10-16T05:34:44;13.80;99.90
61151;DHT22;47029;50.994;2.876;2022-10-16T05:37:11;14.00;99.90
61151;DHT22;47029;50.994;2.876;2022-10-16T05:39:38;13.30;99.90
61151;DHT22;47029;50.994;2.876;2022-10-16T05:42:04;13.90;99.90
61151;DHT22;47029;50.994;2.876;2022-10-16T05:44:30;13.90;99.90
61151;DHT22;47029;50.994;2.876;2022-10-16T05:46:56;14.00;99.90
61151;DHT22;47029;50.994;2.876;2022-10-16T05:49:22;14.00;99.90
61151;DHT22;47029;50.994;2.876;2022-10-16T05:51:48;13.90;99.90
61151;DHT22;47029;50.994;2.876;2022-10-16T05:54:15;14.00;99.90
61151;DHT22;47029;50.994;2.876;2022-10-16T05:56:40;13.90;99.90
61151;DHT22;47029;50.994;2.876;2022-10-16T05:59:06;13.80;99.90
61151;DHT22;47029;50.994;2.876;2022-10-16T06:01:32;13.60;99.90
61151;DHT22;47029;50.994;2.876;2022-10-16T06:03:58;13.70;99.90
61151;DHT22;47029;50.994;2.876;2022-10-16T06:06:26;13.70;99.90
61151;DHT22;47029;50.994;2.876;2022-10-16T06:08:54;13.80;99.90
61151;DHT22;47029;50.994;2.876;2022-10-16T06:11:26;13.80;99.90
61151;DHT22;47029;50.994;2.876;2022-10-16T06:13:54;13.80;99.90
61151;DHT22;47029;50.994;2.876;2022-10-16T06:16:22;13.70;99.90
61151;DHT22;47029;50.994;2.876;2022-10-16T06:18:51;13.70;99.90
61151;DHT22;47029;50.994;2.876;2022-10-16T06:21:23;13.70;99.90
61151;DHT22;47029;50.994;2.876;2022-10-16T06:23:50;13.70;99.90
61151;DHT22;47029;50.994;2.876;2022-10-16T06:26:19;13.90;99.90
61151;DHT22;47029;50.994;2.876;2022-10-16T06:28:46;14.00;99.90
61151;DHT22;47029;50.994;2.876;2022-10-16T06:31:12;14.00;99.90
61151;DHT22;47029;50.994;2.876;2022-10-16T06:33:39;13.80;99.90
61151;DHT22;47029;50.994;2.876;2022-10-16T06:36:14;13.70;99.90
61151;DHT22;47029;50.994;2.876;2022-10-16T06:38:40;13.60;99.90
61151;DHT22;47029;50.994;2.876;2022-10-16T06:41:08;13.60;99.90
61151;DHT22;47029;50.994;2.876;2022-10-16T06:43:34;13.60;99.90
61151;DHT22;47029;50.994;2.876;2022-10-16T06:46:04;13.60;99.90
61151;DHT22;47029;50.994;2.876;2022-10-16T06:48:31;13.60;99.90
61151;DHT22;47029;50.994;2.876;2022-10-16T06:53:29;13.80;99.90
61151;DHT22;47029;50.994;2.876;2022-10-16T06:55:56;13.80;99.90
61151;DHT22;47029;50.994;2.876;2022-10-16T06:58:22;13.80;99.90
61151;DHT22;47029;50.994;2.876;2022-10-16T07:00:48;13.80;99.90
61151;DHT22;47029;50.994;2.876;2022-10-16T07:03:14;13.90;99.90
61151;DHT22;47029;50.994;2.876;2022-10-16T07:05:41;14.00;99.90
61151;DHT22;47029;50.994;2.876;2022-10-16T07:08:07;14.20;99.90
61151;DHT22;47029;50.994;2.876;2022-10-16T07:10:34;14.00;99.90
61151;DHT22;47029;50.994;2.876;2022-10-16T07:13:03;14.10;99.90
61151;DHT22;47029;50.994;2.876;2022-10-16T07:15:29;13.90;99.90
61151;DHT22;47029;50.994;2.876;2022-10-16T07:17:55;13.90;99.90
61151;DHT22;47029;50.994;2.876;2022-10-16T07:20:21;13.80;99.90
61151;DHT22;47029;50.994;2.876;2022-10-16T07:22:47;13.90;99.90
61151;DHT22;47029;50.994;2.876;2022-10-16T07:25:13;14.00;99.90
61151;DHT22;47029;50.994;2.876;2022-10-16T07:27:39;14.00;99.90
61151;DHT22;47029;50.994;2.876;2022-10-16T07:30:06;14.00;99.90
61151;DHT22;47029;50.994;2.876;2022-10-16T07:32:32;14.20;99.90
61151;DHT22;47029;50.994;2.876;2022-10-16T07:34:58;14.20;99.90
61151;DHT22;47029;50.994;2.876;2022-10-16T07:37:23;14.10;99.90
61151;DHT22;47029;50.994;2.876;2022-10-16T07:39:49;14.30;99.90
61151;DHT22;47029;50.994;2.876;2022-10-16T07:42:15;14.30;99.90
61151;DHT22;47029;50.994;2.876;2022-10-16T07:44:41;15.70;99.90
61151;DHT22;47029;50.994;2.876;2022-10-16T07:47:08;14.40;99.90
61151;DHT22;47029;50.994;2.876;2022-10-16T07:49:33;14.50;99.90
61151;DHT22;47029;50.994;2.876;2022-10-16T07:51:59;14.70;99.90
61151;DHT22;47029;50.994;2.876;2022-10-16T07:54:25;14.70;99.90
61151;DHT22;47029;50.994;2.876;2022-10-16T07:56:51;14.80;99.90
61151;DHT22;47029;50.994;2.876;2022-10-16T07:59:18;14.90;99.90
61151;DHT22;47029;50.994;2.876;2022-10-16T08:01:44;15.00;99.90
61151;DHT22;47029;50.994;2.876;2022-10-16T08:04:10;15.00;99.90
61151;DHT22;47029;50.994;2.876;2022-10-16T08:06:39;15.10;99.90
61151;DHT22;47029;50.994;2.876;2022-10-16T08:09:07;15.10;99.90
61151;DHT22;47029;50.994;2.876;2022-10-16T08:11:33;15.20;99.90
61151;DHT22;47029;50.994;2.876;2022-10-16T08:13:59;15.80;99.90
61151;DHT22;47029;50.994;2.876;2022-10-16T08:16:25;15.70;99.90
61151;DHT22;47029;50.994;2.876;2022-10-16T08:18:51;15.70;99.90
61151;DHT22;47029;50.994;2.876;2022-10-16T08:21:20;15.70;99.90
61151;DHT22;47029;50.994;2.876;2022-10-16T08:23:46;15.90;99.90
61151;DHT22;47029;50.994;2.876;2022-10-16T08:26:14;15.90;99.90
61151;DHT22;47029;50.994;2.876;2022-10-16T08:28:41;16.10;99.90
61151;DHT22;47029;50.994;2.876;2022-10-16T08:31:14;16.00;99.90
61151;DHT22;47029;50.994;2.876;2022-10-16T08:33:44;15.30;99.90
61151;DHT22;47029;50.994;2.876;2022-10-16T08:36:12;16.20;99.90
61151;DHT22;47029;50.994;2.876;2022-10-16T08:38:38;16.30;99.90
61151;DHT22;47029;50.994;2.876;2022-10-16T08:43:55;16.30;99.90
61151;DHT22;47029;50.994;2.876;2022-10-16T08:46:33;16.10;99.90
61151;DHT22;47029;50.994;2.876;2022-10-16T08:49:02;16.10;99.90
61151;DHT22;47029;50.994;2.876;2022-10-16T08:51:35;16.10;99.90
61151;DHT22;47029;50.994;2.876;2022-10-16T08:57:09;16.30;99.90
61151;DHT22;47029;50.994;2.876;2022-10-16T08:59:35;16.30;99.90
61151;DHT22;47029;50.994;2.876;2022-10-16T09:02:01;16.30;99.90
61151;DHT22;47029;50.994;2.876;2022-10-16T09:10:39;16.30;99.90
61151;DHT22;47029;50.994;2.876;2022-10-16T09:16:15;16.30;99.90
61151;DHT22;47029;50.994;2.876;2022-10-16T09:21:34;16.40;99.90
61151;DHT22;47029;50.994;2.876;2022-10-16T09:24:13;16.50;99.90
61151;DHT22;47029;50.994;2.876;2022-10-16T09:26:39;16.60;99.90
61151;DHT22;47029;50.994;2.876;2022-10-16T09:29:05;16.80;99.90
61151;DHT22;47029;50.994;2.876;2022-10-16T09:31:32;17.00;99.90
61151;DHT22;47029;50.994;2.876;2022-10-16T09:34:03;17.00;99.90
61151;DHT22;47029;50.994;2.876;2022-10-16T09:36:42;17.00;99.90
61151;DHT22;47029;50.994;2.876;2022-10-16T09:39:10;17.10;99.90
61151;DHT22;47029;50.994;2.876;2022-10-16T09:41:42;17.00;99.90
61151;DHT22;47029;50.994;2.876;2022-10-16T09:44:23;17.00;99.90
61151;DHT22;47029;50.994;2.876;2022-10-16T09:47:00;17.10;99.90
61151;DHT22;47029;50.994;2.876;2022-10-16T09:49:26;17.00;99.90
61151;DHT22;47029;50.994;2.876;2022-10-16T09:52:13;17.00;99.90
61151;DHT22;47029;50.994;2.876;2022-10-16T09:54:49;17.00;99.90
61151;DHT22;47029;50.994;2.876;2022-10-16T09:57:15;17.30;99.90
61151;DHT22;47029;50.994;2.876;2022-10-16T09:59:52;17.30;99.90
61151;DHT22;47029;50.994;2.876;2022-10-16T10:02:30;17.40;99.90
61151;DHT22;47029;50.994;2.876;2022-10-16T10:04:57;17.40;99.90
61151;DHT22;47029;50.994;2.876;2022-10-16T10:09:52;17.40;99.90
61151;DHT22;47029;50.994;2.876;2022-10-16T10:12:26;17.50;99.90
61151;DHT22;47029;50.994;2.876;2022-10-16T10:14:55;17.50;99.90
61151;DHT22;47029;50.994;2.876;2022-10-16T10:17:26;17.50;99.90
61151;DHT22;47029;50.994;2.876;2022-10-16T10:19:59;17.50;99.90
61151;DHT22;47029;50.994;2.876;2022-10-16T10:25:01;17.80;99.90
61151;DHT22;47029;50.994;2.876;2022-10-16T10:33:17;17.10;99.90
61151;DHT22;47029;50.994;2.876;2022-10-16T10:36:05;17.90;99.90
61151;DHT22;47029;50.994;2.876;2022-10-16T10:39:38;17.80;99.90
61151;DHT22;47029;50.994;2.876;2022-10-16T10:55:40;18.50;99.90
61151;DHT22;47029;50.994;2.876;2022-10-16T11:01:13;18.40;99.90
61151;DHT22;47029;50.994;2.876;2022-10-16T11:03:58;18.30;99.90
61151;DHT22;47029;50.994;2.876;2022-10-16T11:06:36;18.40;99.90
61151;DHT22;47029;50.994;2.876;2022-10-16T11:09:12;18.70;99.90
61151;DHT22;47029;50.994;2.876;2022-10-16T11:11:52;18.70;99.90
61151;DHT22;47029;50.994;2.876;2022-10-16T11:14:25;18.70;99.90
61151;DHT22;47029;50.994;2.876;2022-10-16T11:17:03;18.60;99.90
61151;DHT22;47029;50.994;2.876;2022-10-16T11:22:25;18.60;99.90
61151;DHT22;47029;50.994;2.876;2022-10-16T11:27:59;19.10;99.90
61151;DHT22;47029;50.994;2.876;2022-10-16T11:30:29;19.10;99.90
61151;DHT22;47029;50.994;2.876;2022-10-16T11:35:44;19.40;99.90
61151;DHT22;47029;50.994;2.876;2022-10-16T11:40:59;19.40;99.90
61151;DHT22;47029;50.994;2.876;2022-10-16T11:43:37;18.40;99.90
61151;DHT22;47029;50.994;2.876;2022-10-16T11:46:13;19.20;99.90
61151;DHT22;47029;50.994;2.876;2022-10-16T11:49:16;19.20;99.90
61151;DHT22;47029;50.994;2.876;2022-10-16T11:51:49;19.40;99.90
61151;DHT22;47029;50.994;2.876;2022-10-16T11:54:37;19.40;99.90
61151;DHT22;47029;50.994;2.876;2022-10-16T11:57:24;19.60;99.60
61151;DHT22;47029;50.994;2.876;2022-10-16T12:03:03;19.50;99.90
61151;DHT22;47029;50.994;2.876;2022-10-16T12:08:21;20.60;99.90
61151;DHT22;47029;50.994;2.876;2022-10-16T12:10:48;19.50;99.90
61151;DHT22;47029;50.994;2.876;2022-10-16T12:13:46;19.50;99.90
61151;DHT22;47029;50.994;2.876;2022-10-16T12:18:40;19.30;99.90
61151;DHT22;47029;50.994;2.876;2022-10-16T12:21:07;19.20;99.90
61151;DHT22;47029;50.994;2.876;2022-10-16T12:23:51;19.10;99.90
61151;DHT22;47029;50.994;2.876;2022-10-16T12:26:28;19.20;99.90
61151;DHT22;47029;50.994;2.876;2022-10-16T12:29:12;19.30;99.90
61151;DHT22;47029;50.994;2.876;2022-10-16T12:31:44;19.30;99.90
61151;DHT22;47029;50.994;2.876;2022-10-16T12:37:33;19.50;99.90
61151;DHT22;47029;50.994;2.876;2022-10-16T12:39:59;19.60;99.90
61151;DHT22;47029;50.994;2.876;2022-10-16T12:42:36;19.70;99.90
61151;DHT22;47029;50.994;2.876;2022-10-16T12:45:23;19.90;99.90
61151;DHT22;47029;50.994;2.876;2022-10-16T12:47:52;19.90;99.90
61151;DHT22;47029;50.994;2.876;2022-10-16T12:50:35;19.70;99.90
61151;DHT22;47029;50.994;2.876;2022-10-16T12:53:04;19.60;99.90
61151;DHT22;47029;50.994;2.876;2022-10-16T12:58:21;19.50;99.90
61151;DHT22;47029;50.994;2.876;2022-10-16T13:01:23;19.50;99.90
61151;DHT22;47029;50.994;2.876;2022-10-16T13:06:37;19.40;99.90
61151;DHT22;47029;50.994;2.876;2022-10-16T13:17:25;19.40;99.90
61151;DHT22;47029;50.994;2.876;2022-10-16T13:20:02;19.30;99.90
61151;DHT22;47029;50.994;2.876;2022-10-16T13:28:08;19.30;99.90
61151;DHT22;47029;50.994;2.876;2022-10-16T13:30:41;19.10;99.90
61151;DHT22;47029;50.994;2.876;2022-10-16T13:33:17;19.20;99.90
61151;DHT22;47029;50.994;2.876;2022-10-16T13:35:53;19.20;99.90
61151;DHT22;47029;50.994;2.876;2022-10-16T13:38:22;19.30;99.90
61151;DHT22;47029;50.994;2.876;2022-10-16T13:41:00;19.30;99.90
61151;DHT22;47029;50.994;2.876;2022-10-16T13:43:34;19.20;99.90
61151;DHT22;47029;50.994;2.876;2022-10-16T13:46:04;19.20;99.90
61151;DHT22;47029;50.994;2.876;2022-10-16T13:48:32;19.10;99.90
61151;DHT22;47029;50.994;2.876;2022-10-16T13:51:04;19.00;99.90
61151;DHT22;47029;50.994;2.876;2022-10-16T13:53:32;19.00;99.90
61151;DHT22;47029;50.994;2.876;2022-10-16T13:55:59;19.00;99.90
61151;DHT22;47029;50.994;2.876;2022-10-16T13:58:25;19.00;99.90
61151;DHT22;47029;50.994;2.876;2022-10-16T14:00:56;19.00;99.90
61151;DHT22;47029;50.994;2.876;2022-10-16T14:03:22;19.00;99.90
61151;DHT22;47029;50.994;2.876;2022-10-16T14:05:53;19.00;99.90
61151;DHT22;47029;50.994;2.876;2022-10-16T14:08:22;19.10;99.90
61151;DHT22;47029;50.994;2.876;2022-10-16T14:10:55;19.20;99.90
61151;DHT22;47029;50.994;2.876;2022-10-16T14:13:36;19.20;99.90
61151;DHT22;47029;50.994;2.876;2022-10-16T14:16:07;19.20;99.90
61151;DHT22;47029;50.994;2.876;2022-10-16T14:18:35;19.20;99.90
61151;DHT22;47029;50.994;2.876;2022-10-16T14:21:07;19.20;99.90
61151;DHT22;47029;50.994;2.876;2022-10-16T14:23:39;19.00;99.90
61151;DHT22;47029;50.994;2.876;2022-10-16T14:28:39;18.90;99.90
61151;DHT22;47029;50.994;2.876;2022-10-16T14:31:25;18.80;99.90
61151;DHT22;47029;50.994;2.876;2022-10-16T14:33:51;18.80;99.90
61151;DHT22;47029;50.994;2.876;2022-10-16T14:36:17;18.80;99.90
61151;DHT22;47029;50.994;2.876;2022-10-16T14:39:14;18.80;99.90
61151;DHT22;47029;50.994;2.876;2022-10-16T14:41:48;18.60;99.90
61151;DHT22;47029;50.994;2.876;2022-10-16T14:44:16;18.60;99.90
61151;DHT22;47029;50.994;2.876;2022-10-16T14:46:44;18.60;99.90
61151;DHT22;47029;50.994;2.876;2022-10-16T14:51:40;18.80;99.90
61151;DHT22;47029;50.994;2.876;2022-10-16T14:54:12;18.50;99.90
61151;DHT22;47029;50.994;2.876;2022-10-16T14:56:56;18.50;99.90
61151;DHT22;47029;50.994;2.876;2022-10-16T14:59:32;18.40;99.90
61151;DHT22;47029;50.994;2.876;2022-10-16T15:01:59;18.30;99.90
61151;DHT22;47029;50.994;2.876;2022-10-16T15:04:26;18.30;99.90
61151;DHT22;47029;50.994;2.876;2022-10-16T15:06:52;18.40;99.90
61151;DHT22;47029;50.994;2.876;2022-10-16T15:09:18;18.40;99.90
61151;DHT22;47029;50.994;2.876;2022-10-16T15:11:44;18.50;99.90
61151;DHT22;47029;50.994;2.876;2022-10-16T15:14:12;18.30;99.90
61151;DHT22;47029;50.994;2.876;2022-10-16T15:16:38;18.30;99.90
61151;DHT22;47029;50.994;2.876;2022-10-16T15:19:04;18.40;99.90
61151;DHT22;47029;50.994;2.876;2022-10-16T15:21:32;18.40;99.90
61151;DHT22;47029;50.994;2.876;2022-10-16T15:23:59;18.30;99.90
61151;DHT22;47029;50.994;2.876;2022-10-16T15:26:29;18.30;99.90
61151;DHT22;47029;50.994;2.876;2022-10-16T15:28:56;18.40;99.90
61151;DHT22;47029;50.994;2.876;2022-10-16T15:31:22;18.40;99.90
61151;DHT22;47029;50.994;2.876;2022-10-16T15:33:53;18.40;99.90
61151;DHT22;47029;50.994;2.876;2022-10-16T15:36:35;18.20;99.90
61151;DHT22;47029;50.994;2.876;2022-10-16T15:39:16;18.10;99.90
61151;DHT22;47029;50.994;2.876;2022-10-16T15:41:46;17.90;99.90
61151;DHT22;47029;50.994;2.876;2022-10-16T15:44:17;17.90;99.90
61151;DHT22;47029;50.994;2.876;2022-10-16T15:46:43;17.90;99.90
61151;DHT22;47029;50.994;2.876;2022-10-16T15:49:10;18.00;99.90
61151;DHT22;47029;50.994;2.876;2022-10-16T15:51:41;18.00;99.90
61151;DHT22;47029;50.994;2.876;2022-10-16T15:54:07;18.00;99.90
61151;DHT22;47029;50.994;2.876;2022-10-16T15:56:33;18.00;99.90
61151;DHT22;47029;50.994;2.876;2022-10-16T15:59:02;18.10;99.90
61151;DHT22;47029;50.994;2.876;2022-10-16T16:01:34;18.10;99.90
61151;DHT22;47029;50.994;2.876;2022-10-16T16:04:00;18.10;99.90
61151;DHT22;47029;50.994;2.876;2022-10-16T16:06:27;18.10;99.90
61151;DHT22;47029;50.994;2.876;2022-10-16T16:08:53;18.10;99.90
61151;DHT22;47029;50.994;2.876;2022-10-16T16:11:20;18.00;99.90
61151;DHT22;47029;50.994;2.876;2022-10-16T16:13:45;18.00;99.90
61151;DHT22;47029;50.994;2.876;2022-10-16T16:16:14;18.00;99.90
61151;DHT22;47029;50.994;2.876;2022-10-16T16:18:40;18.10;99.90
61151;DHT22;47029;50.994;2.876;2022-10-16T16:21:06;17.90;99.90
61151;DHT22;47029;50.994;2.876;2022-10-16T16:23:32;17.90;99.90
61151;DHT22;47029;50.994;2.876;2022-10-16T16:26:10;17.90;99.90
61151;DHT22;47029;50.994;2.876;2022-10-16T16:28:38;17.70;99.90
61151;DHT22;47029;50.994;2.876;2022-10-16T16:31:05;17.70;99.90
61151;DHT22;47029;50.994;2.876;2022-10-16T16:33:31;17.60;99.90
61151;DHT22;47029;50.994;2.876;2022-10-16T16:36:02;17.60;99.90
61151;DHT22;47029;50.994;2.876;2022-10-16T16:38:29;17.50;99.90
61151;DHT22;47029;50.994;2.876;2022-10-16T16:40:55;17.50;99.90
61151;DHT22;47029;50.994;2.876;2022-10-16T16:43:26;17.50;99.90
61151;DHT22;47029;50.994;2.876;2022-10-16T16:45:53;17.50;99.90
61151;DHT22;47029;50.994;2.876;2022-10-16T16:48:21;17.50;99.90
61151;DHT22;47029;50.994;2.876;2022-10-16T16:50:47;17.50;99.90
61151;DHT22;47029;50.994;2.876;2022-10-16T16:53:12;17.50;99.90
61151;DHT22;47029;50.994;2.876;2022-10-16T16:55:39;17.40;99.90
61151;DHT22;47029;50.994;2.876;2022-10-16T16:58:05;17.40;99.90
61151;DHT22;47029;50.994;2.876;2022-10-16T17:00:30;17.40;99.90
61151;DHT22;47029;50.994;2.876;2022-10-16T17:02:57;17.20;99.90
61151;DHT22;47029;50.994;2.876;2022-10-16T17:05:25;17.20;99.90
61151;DHT22;47029;50.994;2.876;2022-10-16T17:07:52;17.30;99.90
61151;DHT22;47029;50.994;2.876;2022-10-16T17:10:18;17.10;99.90
61151;DHT22;47029;50.994;2.876;2022-10-16T17:12:44;17.00;99.90
61151;DHT22;47029;50.994;2.876;2022-10-16T17:15:10;16.80;99.90
61151;DHT22;47029;50.994;2.876;2022-10-16T17:17:36;16.70;99.90
61151;DHT22;47029;50.994;2.876;2022-10-16T17:20:01;16.60;99.90
61151;DHT22;47029;50.994;2.876;2022-10-16T17:22:28;16.50;99.90
61151;DHT22;47029;50.994;2.876;2022-10-16T17:24:56;16.50;99.90
61151;DHT22;47029;50.994;2.876;2022-10-16T17:27:22;16.60;99.90
61151;DHT22;47029;50.994;2.876;2022-10-16T17:29:51;16.50;99.90
61151;DHT22;47029;50.994;2.876;2022-10-16T17:32:18;16.50;99.90